Time;durP1;ratioP1;P1;durP2;ratioP2;P2;SDS_P1;SDS_P2;PMS_P1;PMS_P2;Temp;Humidity;BMP_temperature;BMP_pressure;BME280_temperature;BME280_humidity;BME280_pressure;Samples;Min_cycle;Max_cycle;Signal;HPM_P1;HPM_P2
2023/08/26 00:02:08;;;;;;;5.07;3.07;;;;;;;21.30;100.00;99854.22;5005856;28;20057;-55
2023/08/26 00:04:39;;;;;;;7.87;4.20;;;;;;;21.34;100.00;99847.72;5015718;28;20135;-55
2023/08/26 00:07:10;;;;;;;6.63;4.33;;;;;;;21.37;100.00;99850.19;5005356;28;20119;-54
2023/08/26 00:09:40;;;;;;;6.50;3.90;;;;;;;21.46;100.00;99841.59;5016571;28;20431;-55
2023/08/26 00:12:11;;;;;;;6.30;3.83;;;;;;;21.49;100.00;99838.75;5005441;28;20045;-53
2023/08/26 00:14:46;;;;;;;6.97;4.50;;;;;;;21.54;100.00;99836.63;5015484;28;20057;-54
2023/08/26 00:17:17;;;;;;;7.03;4.97;;;;;;;21.52;100.00;99837.72;5007302;28;20802;-54
2023/08/26 00:19:48;;;;;;;8.17;5.37;;;;;;;21.61;100.00;99830.88;5015734;28;20063;-53
2023/08/26 00:22:18;;;;;;;6.83;5.80;;;;;;;21.50;100.00;99819.19;5005784;28;20065;-54
2023/08/26 00:24:49;;;;;;;7.87;5.60;;;;;;;21.51;100.00;99815.56;5016995;28;20137;-55
2023/08/26 00:27:20;;;;;;;8.57;5.40;;;;;;;21.68;100.00;99826.84;5003874;28;20041;-53
2023/08/26 00:29:52;;;;;;;9.27;4.90;;;;;;;21.71;100.00;99832.78;5014822;28;20627;-55
2023/08/26 00:32:22;;;;;;;7.60;6.33;;;;;;;21.71;100.00;99830.13;5005259;28;20376;-56
2023/08/26 00:34:53;;;;;;;9.80;6.90;;;;;;;21.74;100.00;99810.44;5015154;28;20132;-55
2023/08/26 00:37:23;;;;;;;9.57;6.97;;;;;;;21.74;100.00;99813.13;5004450;28;20095;-53
2023/08/26 00:39:54;;;;;;;10.97;7.53;;;;;;;21.79;100.00;99808.34;5014278;28;20067;-55
2023/08/26 00:42:24;;;;;;;11.67;7.67;;;;;;;21.75;100.00;99807.69;5003863;28;20077;-52
2023/08/26 00:44:56;;;;;;;12.33;8.83;;;;;;;21.73;100.00;99803.44;5013436;28;20144;-55
2023/08/26 00:47:27;;;;;;;16.73;9.13;;;;;;;21.66;100.00;99808.34;5007933;28;20152;-54
2023/08/26 00:49:58;;;;;;;13.73;8.80;;;;;;;21.65;100.00;99811.13;4995858;28;20132;-54
2023/08/26 00:52:29;;;;;;;13.27;9.33;;;;;;;21.61;100.00;99809.63;4990505;28;20087;-54
2023/08/26 00:55:00;;;;;;;17.90;9.77;;;;;;;21.60;100.00;99814.09;4995494;28;20069;-55
2023/08/26 00:57:31;;;;;;;14.80;8.40;;;;;;;21.67;100.00;99814.53;5005226;28;20388;-55
2023/08/26 01:00:05;;;;;;;15.33;9.07;;;;;;;21.75;100.00;99822.81;4987204;28;20107;-55
2023/08/26 01:02:35;;;;;;;9.93;7.00;;;;;;;21.81;100.00;99827.69;4999605;28;20132;-55
2023/08/26 01:05:07;;;;;;;10.93;8.57;;;;;;;21.94;100.00;99820.56;4995733;28;20455;-55
2023/08/26 01:07:38;;;;;;;6.13;4.63;;;;;;;22.06;100.00;99815.31;5006288;28;20060;-55
2023/08/26 01:10:09;;;;;;;6.37;3.90;;;;;;;22.05;100.00;99813.63;4996407;28;20069;-55
2023/08/26 01:12:50;;;;;;;5.37;3.97;;;;;;;22.36;100.00;99829.09;5006194;28;20452;-55
2023/08/26 01:15:23;;;;;;;7.20;4.50;;;;;;;22.37;100.00;99814.00;4996334;28;20049;-53
2023/08/26 01:17:55;;;;;;;9.47;5.33;;;;;;;22.31;100.00;99809.97;5005752;28;20203;-54
2023/08/26 01:20:27;;;;;;;9.53;5.10;;;;;;;22.39;100.00;99812.94;4995287;28;20492;-55
2023/08/26 01:22:59;;;;;;;12.13;5.57;;;;;;;22.50;100.00;99808.63;4996627;28;20053;-53
2023/08/26 01:25:31;;;;;;;11.63;7.13;;;;;;;22.63;100.00;99814.75;5007682;28;20046;-55
2023/08/26 01:28:01;;;;;;;14.93;6.03;;;;;;;22.73;100.00;99807.78;4997272;28;20053;-55
2023/08/26 01:30:32;;;;;;;9.23;6.13;;;;;;;22.86;100.00;99798.88;5013621;28;20045;-54
2023/08/26 01:33:09;;;;;;;11.07;6.43;;;;;;;22.92;100.00;99801.09;5004551;28;20063;-54
2023/08/26 01:35:43;;;;;;;10.17;6.43;;;;;;;23.03;100.00;99801.16;5009679;28;20084;-54
2023/08/26 01:38:18;;;;;;;9.50;6.33;;;;;;;23.20;100.00;99800.72;5001170;28;25481;-56
2023/08/26 01:40:56;;;;;;;11.47;6.90;;;;;;;23.34;100.00;99804.13;5003456;28;20076;-54
2023/08/26 01:43:27;;;;;;;11.80;6.80;;;;;;;23.46;100.00;99803.19;5005609;28;20143;-56
2023/08/26 01:45:58;;;;;;;7.80;5.53;;;;;;;23.69;100.00;99796.94;5008624;28;20160;-55
2023/08/26 01:48:29;;;;;;;10.07;6.90;;;;;;;23.93;100.00;99806.66;5024562;28;20132;-55
2023/08/26 01:51:00;;;;;;;10.67;6.70;;;;;;;24.08;100.00;99805.44;5006270;28;20050;-54
2023/08/26 01:53:30;;;;;;;10.60;8.13;;;;;;;24.09;100.00;99796.47;5019023;28;20136;-55
2023/08/26 01:56:02;;;;;;;8.97;6.70;;;;;;;24.15;100.00;99788.94;5006589;28;20076;-56
2023/08/26 01:58:33;;;;;;;10.23;6.70;;;;;;;24.11;100.00;99783.84;5020099;28;20060;-57
2023/08/26 02:01:07;;;;;;;9.70;7.27;;;;;;;24.19;100.00;99779.69;5021847;28;20110;-57
2023/08/26 02:03:38;;;;;;;11.50;7.77;;;;;;;24.20;100.00;99770.72;5036896;28;20254;-57
2023/08/26 02:06:09;;;;;;;9.07;6.60;;;;;;;24.39;100.00;99772.72;5046006;28;20132;-57
2023/08/26 02:08:42;;;;;;;11.53;7.07;;;;;;;24.42;100.00;99778.69;5020028;28;20344;-56
2023/08/26 02:11:14;;;;;;;13.80;6.87;;;;;;;24.43;100.00;99772.34;5002153;28;20388;-57
2023/08/26 02:13:47;;;;;;;10.53;8.20;;;;;;;24.43;100.00;99767.03;5031401;28;20037;-57
2023/08/26 02:16:18;;;;;;;12.13;8.33;;;;;;;24.46;100.00;99772.16;5046122;28;20041;-56
2023/08/26 02:18:48;;;;;;;10.07;7.40;;;;;;;24.44;100.00;99774.06;5045874;28;20056;-57
2023/08/26 02:21:18;;;;;;;12.20;9.40;;;;;;;24.61;100.00;99779.88;5026307;28;20044;-57
2023/08/26 02:23:49;;;;;;;10.00;7.90;;;;;;;24.85;100.00;99775.16;5037020;28;20045;-56
2023/08/26 02:26:21;;;;;;;12.23;8.47;;;;;;;25.02;100.00;99776.41;5026442;28;20073;-56
2023/08/26 02:28:51;;;;;;;11.70;7.43;;;;;;;25.17;100.00;99776.97;5056859;28;20063;-56
2023/08/26 02:31:22;;;;;;;9.17;6.17;;;;;;;25.33;100.00;99773.81;5038101;28;20060;-57
2023/08/26 02:33:53;;;;;;;10.87;6.83;;;;;;;25.53;100.00;99780.13;5020608;28;20137;-56
2023/08/26 02:36:23;;;;;;;8.53;6.53;;;;;;;25.63;100.00;99762.31;5003457;28;20049;-56
2023/08/26 02:38:54;;;;;;;13.73;7.40;;;;;;;25.57;100.00;99762.84;5011460;28;20061;-55
2023/08/26 02:41:26;;;;;;;10.47;7.53;;;;;;;25.39;100.00;99750.09;4997554;28;20041;-55
2023/08/26 02:43:59;;;;;;;7.30;6.33;;;;;;;25.57;100.00;99757.50;4999767;28;20049;-55
2023/08/26 02:46:30;;;;;;;9.87;6.70;;;;;;;25.71;100.00;99757.16;5018205;28;20049;-55
2023/08/26 02:49:05;;;;;;;9.17;6.10;;;;;;;25.81;100.00;99760.72;5017520;28;20075;-57
2023/08/26 02:51:42;;;;;;;9.37;6.30;;;;;;;25.96;100.00;99749.63;5010458;28;20139;-55
2023/08/26 02:54:14;;;;;;;11.63;6.30;;;;;;;26.06;100.00;99747.84;5011624;28;20052;-54
2023/08/26 02:56:47;;;;;;;9.43;6.10;;;;;;;26.11;100.00;99740.25;5018617;28;20618;-54
2023/08/26 02:59:20;;;;;;;9.40;6.27;;;;;;;26.16;100.00;99737.13;4998182;28;20480;-56
2023/08/26 03:02:03;;;;;;;8.40;5.67;;;;;;;26.15;100.00;99733.63;5007848;28;20123;-55
2023/08/26 03:04:36;;;;;;;11.93;6.30;;;;;;;26.12;100.00;99728.56;5005055;28;20049;-55
2023/08/26 03:07:10;;;;;;;13.93;6.70;;;;;;;26.27;100.00;99733.53;5002254;28;20437;-54
2023/08/26 03:09:43;;;;;;;9.43;5.80;;;;;;;26.34;100.00;99732.81;5007401;28;20053;-54
2023/08/26 03:12:19;;;;;;;8.77;5.20;;;;;;;26.39;100.00;99727.06;4997768;28;20121;-54
2023/08/26 03:14:53;;;;;;;8.07;5.93;;;;;;;26.44;100.00;99728.31;5014610;28;20447;-55
2023/08/26 03:17:25;;;;;;;8.90;5.63;;;;;;;26.45;100.00;99726.47;4988458;28;20045;-56
2023/08/26 03:19:58;;;;;;;8.10;6.63;;;;;;;26.38;100.00;99699.41;4998022;28;20045;-55
2023/08/26 03:22:32;;;;;;;10.67;5.93;;;;;;;26.66;100.00;99719.19;5009682;28;20126;-54
2023/08/26 03:25:06;;;;;;;8.30;5.47;;;;;;;26.79;100.00;99712.69;4991126;28;20092;-54
2023/08/26 03:27:41;;;;;;;12.13;5.80;;;;;;;27.02;100.00;99718.59;4995681;28;20041;-55
2023/08/26 03:30:14;;;;;;;13.13;6.03;;;;;;;27.03;100.00;99715.75;4995966;28;20045;-55
2023/08/26 03:32:50;;;;;;;15.93;6.10;;;;;;;26.99;100.00;99700.09;5006727;28;20584;-54
2023/08/26 03:35:25;;;;;;;13.00;5.70;;;;;;;27.17;100.00;99716.28;5009872;28;20367;-54
2023/08/26 03:37:57;;;;;;;9.70;5.40;;;;;;;27.25;100.00;99711.91;5012700;28;20365;-53
2023/08/26 03:40:31;;;;;;;11.03;5.93;;;;;;;27.26;100.00;99708.25;5006985;28;20137;-54
2023/08/26 03:43:06;;;;;;;9.10;5.60;;;;;;;27.06;100.00;99672.56;5000464;28;20456;-55
2023/08/26 03:45:42;;;;;;;8.37;4.90;;;;;;;27.34;100.00;99691.44;5006287;28;20053;-53
2023/08/26 03:48:32;;;;;;;9.97;5.30;;;;;;;27.44;100.00;99689.53;4997143;28;20052;-55
2023/08/26 03:51:07;;;;;;;14.67;5.60;;;;;;;27.61;100.00;99700.47;5007087;28;20057;-55
2023/08/26 03:53:43;;;;;;;6.83;4.60;;;;;;;27.60;99.68;99686.22;5021254;28;20422;-56
2023/08/26 03:56:16;;;;;;;8.40;4.70;;;;;;;27.60;99.47;99680.00;5012708;28;20544;-59
2023/08/26 03:58:56;;;;;;;8.37;4.37;;;;;;;27.68;97.64;99688.16;5021869;28;20059;-56
2023/08/26 04:01:29;;;;;;;7.23;3.83;;;;;;;27.75;97.03;99676.66;5011721;28;20099;-56
2023/08/26 04:04:02;;;;;;;5.80;3.80;;;;;;;27.89;95.96;99672.69;5011088;28;20065;-56
2023/08/26 04:06:34;;;;;;;7.13;3.70;;;;;;;28.03;95.47;99670.47;5021094;28;20565;-54
2023/08/26 04:09:10;;;;;;;11.63;3.87;;;;;;;28.08;93.57;99673.53;5009891;28;20182;-56
2023/08/26 04:11:44;;;;;;;8.93;3.97;;;;;;;28.16;93.30;99670.94;5021584;28;20049;-56
2023/08/26 04:14:19;;;;;;;10.83;3.77;;;;;;;28.16;91.93;99670.94;5011628;28;20103;-57
2023/08/26 04:16:51;;;;;;;7.40;3.93;;;;;;;28.17;91.96;99672.63;5021511;28;20537;-57
2023/08/26 04:19:24;;;;;;;9.43;3.50;;;;;;;28.20;90.65;99672.31;5003422;28;20140;-56
2023/08/26 04:21:59;;;;;;;7.83;4.27;;;;;;;28.01;90.99;99681.38;5015834;28;20155;-55
2023/08/26 04:24:34;;;;;;;8.90;3.80;;;;;;;27.90;91.79;99671.66;5021767;28;20147;-56
2023/08/26 04:27:10;;;;;;;8.03;3.73;;;;;;;27.80;91.30;99665.47;5011213;28;20048;-57
2023/08/26 04:29:44;;;;;;;10.80;3.77;;;;;;;27.56;91.78;99667.88;5020968;28;20049;-56
2023/08/26 04:32:17;;;;;;;8.30;3.90;;;;;;;27.29;91.76;99658.84;5011333;28;20092;-57
2023/08/26 04:34:50;;;;;;;7.53;4.13;;;;;;;27.18;92.50;99675.06;5022097;28;20972;-56
2023/08/26 04:37:26;;;;;;;8.90;3.60;;;;;;;27.38;92.25;99655.25;5010377;28;20494;-55
2023/08/26 04:39:59;;;;;;;10.60;3.57;;;;;;;27.59;92.57;99664.91;5011021;28;20391;-56
2023/08/26 04:42:33;;;;;;;9.63;3.90;;;;;;;27.61;91.55;99670.94;5008198;28;20080;-57
2023/08/26 04:45:15;;;;;;;9.27;4.03;;;;;;;27.57;91.37;99669.59;5010363;28;20064;-60
2023/08/26 04:47:50;;;;;;;9.83;3.63;;;;;;;27.43;91.05;99669.09;5006340;28;20044;-57
2023/08/26 04:50:22;;;;;;;8.10;3.60;;;;;;;27.35;91.70;99663.59;5011325;28;20146;-57
2023/08/26 04:52:59;;;;;;;6.00;3.33;;;;;;;27.24;91.54;99659.28;5013744;28;20098;-57
2023/08/26 04:55:35;;;;;;;7.17;3.43;;;;;;;27.02;91.39;99664.97;5020426;28;20488;-57
2023/08/26 04:58:11;;;;;;;10.37;3.33;;;;;;;26.88;93.01;99668.94;5010751;28;20060;-58
2023/08/26 05:00:47;;;;;;;9.40;3.37;;;;;;;26.64;94.73;99639.94;5020947;28;20132;-55
2023/08/26 05:03:24;;;;;;;10.33;3.33;;;;;;;26.71;95.27;99653.59;5010664;28;20064;-57
2023/08/26 05:06:05;;;;;;;9.17;3.50;;;;;;;26.71;95.65;99661.63;5011043;28;20059;-59
2023/08/26 05:08:41;;;;;;;6.93;3.30;;;;;;;26.65;96.97;99661.22;5021053;28;20049;-57
2023/08/26 05:11:26;;;;;;;6.80;3.70;;;;;;;26.55;97.90;99660.38;5011003;28;20432;-57
2023/08/26 05:14:02;;;;;;;10.67;3.17;;;;;;;26.42;98.87;99657.13;5010908;28;20057;-59
2023/08/26 05:16:42;;;;;;;5.50;3.30;;;;;;;26.22;98.82;99662.47;5020481;28;20059;-55
2023/08/26 05:19:19;;;;;;;6.70;3.40;;;;;;;26.10;98.96;99660.91;5010978;28;20545;-57
2023/08/26 05:22:01;;;;;;;7.87;3.23;;;;;;;26.05;99.02;99655.13;5017847;28;20056;-56
2023/08/26 05:24:44;;;;;;;5.57;3.00;;;;;;;26.02;100.00;99660.75;5019690;28;20140;-57
2023/08/26 05:27:23;;;;;;;6.83;3.13;;;;;;;25.93;100.00;99666.94;5008858;28;20379;-57
2023/08/26 05:30:04;;;;;;;8.67;2.70;;;;;;;25.84;99.71;99673.94;5013079;28;20052;-56
2023/08/26 05:32:38;;;;;;;8.23;3.20;;;;;;;25.83;100.00;99673.09;5019813;28;20619;-56
2023/08/26 05:35:09;;;;;;;5.53;2.93;;;;;;;25.87;99.74;99672.84;5010507;28;20045;-57
2023/08/26 05:37:44;;;;;;;4.77;2.47;;;;;;;25.88;99.03;99669.19;5021019;28;20429;-57
2023/08/26 05:40:16;;;;;;;6.83;2.57;;;;;;;25.86;99.46;99673.81;5010697;28;20050;-56
2023/08/26 05:42:46;;;;;;;7.20;2.20;;;;;;;25.77;98.09;99673.63;5020655;28;20313;-57
2023/08/26 05:45:17;;;;;;;7.20;2.57;;;;;;;25.69;98.55;99676.16;5009372;28;20056;-57
2023/08/26 05:47:49;;;;;;;6.23;2.57;;;;;;;25.66;99.78;99670.22;5018943;28;20052;-55
2023/08/26 05:50:20;;;;;;;9.73;2.43;;;;;;;25.64;100.00;99667.69;4991520;28;20140;-57
2023/08/26 05:52:51;;;;;;;8.13;2.40;;;;;;;25.62;99.95;99672.34;5001686;28;20057;-56
2023/08/26 05:55:21;;;;;;;5.70;2.00;;;;;;;25.60;100.00;99672.47;4991301;28;20087;-56
2023/08/26 05:57:52;;;;;;;4.07;1.90;;;;;;;25.64;100.00;99667.69;5000871;28;20127;-55
2023/08/26 06:00:25;;;;;;;6.53;2.43;;;;;;;25.66;99.25;99660.38;5009005;28;20110;-59
2023/08/26 06:02:58;;;;;;;11.40;2.30;;;;;;;25.73;100.00;99666.84;5014130;28;20152;-55
2023/08/26 06:05:28;;;;;;;5.17;1.90;;;;;;;25.79;98.67;99662.81;5020177;28;20056;-56
2023/08/26 06:08:04;;;;;;;7.23;2.00;;;;;;;25.80;97.83;99664.50;5011550;28;20098;-58
2023/08/26 06:10:35;;;;;;;9.30;2.20;;;;;;;25.87;97.48;99664.81;5020675;28;20091;-58
2023/08/26 06:13:06;;;;;;;5.73;1.70;;;;;;;25.83;96.86;99656.19;5010450;28;20981;-58
2023/08/26 06:15:37;;;;;;;8.03;2.00;;;;;;;25.85;97.05;99661.41;5020313;28;20067;-56
2023/08/26 06:18:10;;;;;;;10.67;1.70;;;;;;;25.80;97.23;99662.66;5010372;28;20059;-55
2023/08/26 06:20:40;;;;;;;9.53;1.73;;;;;;;25.71;97.51;99660.81;5020494;28;20078;-57
2023/08/26 06:23:11;;;;;;;7.37;2.03;;;;;;;25.65;98.16;99663.19;5008559;28;20128;-57
2023/08/26 06:25:52;;;;;;;5.70;1.87;;;;;;;25.60;98.57;99671.63;5001275;28;20068;-57
2023/08/26 06:28:24;;;;;;;10.17;2.40;;;;;;;25.53;99.10;99665.09;5002915;28;20168;-57
2023/08/26 06:30:59;;;;;;;7.13;2.77;;;;;;;25.45;99.92;99656.94;5020552;28;20375;-57
2023/08/26 06:33:32;;;;;;;9.23;2.00;;;;;;;25.47;99.40;99671.00;5010799;28;20079;-58
2023/08/26 06:36:02;;;;;;;5.00;1.70;;;;;;;25.40;99.61;99666.19;5010551;28;20062;-56
2023/08/26 06:38:32;;;;;;;5.53;2.23;;;;;;;25.29;100.00;99655.59;5020831;28;20037;-58
2023/08/26 06:41:03;;;;;;;7.30;2.10;;;;;;;25.40;100.00;99663.50;5014360;28;20063;-58
2023/08/26 06:43:34;;;;;;;6.50;1.87;;;;;;;25.41;100.00;99659.03;5024137;28;20052;-57
2023/08/26 06:46:05;;;;;;;9.60;2.30;;;;;;;25.47;100.00;99649.63;5013632;28;20048;-55
2023/08/26 06:48:37;;;;;;;11.27;2.30;;;;;;;25.49;100.00;99647.66;5023412;28;20222;-58
2023/08/26 06:51:07;;;;;;;9.93;1.83;;;;;;;25.46;100.00;99654.13;5013853;28;20153;-57
2023/08/26 06:53:38;;;;;;;10.53;2.47;;;;;;;25.42;100.00;99657.19;5017772;28;20043;-57
2023/08/26 06:56:08;;;;;;;9.20;2.73;;;;;;;25.40;100.00;99650.16;4994388;28;20037;-58
2023/08/26 06:58:39;;;;;;;6.57;2.20;;;;;;;25.37;100.00;99650.41;5004454;28;20371;-58
2023/08/26 07:01:09;;;;;;;7.37;2.17;;;;;;;25.33;100.00;99657.00;4994490;28;20075;-57
2023/08/26 07:03:42;;;;;;;9.53;2.37;;;;;;;25.33;100.00;99659.69;5003829;28;20062;-56
2023/08/26 07:06:14;;;;;;;9.47;2.60;;;;;;;25.32;100.00;99660.69;4993839;28;20095;-56
2023/08/26 07:08:46;;;;;;;8.60;2.00;;;;;;;25.29;100.00;99658.28;5004014;28;20062;-55
2023/08/26 07:11:17;;;;;;;8.93;2.63;;;;;;;25.24;100.00;99660.50;4994173;28;20503;-58
2023/08/26 07:13:48;;;;;;;8.80;2.50;;;;;;;25.18;100.00;99655.69;5004474;28;20037;-58
2023/08/26 07:16:19;;;;;;;10.13;2.60;;;;;;;25.18;100.00;99666.38;4993416;28;20045;-56
2023/08/26 07:18:51;;;;;;;10.13;2.60;;;;;;;25.11;100.00;99655.34;5001436;28;20601;-56
2023/08/26 07:21:22;;;;;;;11.53;2.40;;;;;;;25.08;100.00;99665.44;5013292;28;20080;-56
2023/08/26 07:23:52;;;;;;;8.70;2.50;;;;;;;25.01;100.00;99653.59;5023361;28;20587;-57
2023/08/26 07:26:23;;;;;;;12.70;2.27;;;;;;;24.69;100.00;99622.50;5012414;28;20053;-58
2023/08/26 07:28:53;;;;;;;16.33;2.47;;;;;;;24.81;100.00;99658.84;5023025;28;20744;-57
2023/08/26 07:31:24;;;;;;;7.43;2.10;;;;;;;24.75;100.00;99659.34;5012464;28;20531;-56
2023/08/26 07:33:56;;;;;;;6.73;2.07;;;;;;;24.70;100.00;99667.75;5022845;28;20049;-55
2023/08/26 07:36:27;;;;;;;11.03;1.97;;;;;;;24.67;100.00;99667.19;5000255;28;20501;-57
2023/08/26 07:38:59;;;;;;;11.07;2.63;;;;;;;24.65;100.00;99674.47;4993219;28;20049;-56
2023/08/26 07:41:29;;;;;;;11.43;2.30;;;;;;;24.58;100.00;99676.78;5003155;28;20068;-57
2023/08/26 07:44:00;;;;;;;10.33;2.33;;;;;;;24.47;100.00;99667.03;5001544;28;20144;-56
2023/08/26 07:46:31;;;;;;;9.63;2.27;;;;;;;24.46;100.00;99681.38;5038567;28;20131;-58
2023/08/26 07:49:06;;;;;;;6.37;2.40;;;;;;;24.41;100.00;99683.53;5017583;28;20049;-58
2023/08/26 07:51:37;;;;;;;8.93;2.10;;;;;;;24.14;100.00;99648.44;5029146;28;20140;-58
2023/08/26 07:54:07;;;;;;;11.43;2.00;;;;;;;24.31;100.00;99685.25;5017097;28;20472;-57
2023/08/26 07:56:38;;;;;;;13.17;2.43;;;;;;;24.24;100.00;99678.75;5037232;28;20068;-58
2023/08/26 07:59:08;;;;;;;7.43;1.70;;;;;;;24.25;100.00;99693.78;5017546;28;20049;-58
2023/08/26 08:01:39;;;;;;;11.57;2.37;;;;;;;24.24;100.00;99686.75;5025918;28;20040;-60
2023/08/26 08:04:11;;;;;;;9.60;2.23;;;;;;;24.19;100.00;99691.59;5018909;28;20236;-58
2023/08/26 08:06:42;;;;;;;10.73;2.57;;;;;;;24.15;100.00;99687.50;5027205;28;20048;-58
2023/08/26 08:09:13;;;;;;;14.33;2.90;;;;;;;24.05;100.00;99682.91;5019303;28;20081;-56
2023/08/26 08:11:43;;;;;;;8.93;2.33;;;;;;;24.05;100.00;99687.41;5029567;28;20041;-58
2023/08/26 08:14:14;;;;;;;9.57;2.30;;;;;;;24.00;100.00;99694.94;5019316;28;20045;-58
2023/08/26 08:16:44;;;;;;;9.10;2.10;;;;;;;23.97;100.00;99689.88;5027078;28;20044;-58
2023/08/26 08:19:16;;;;;;;8.93;2.20;;;;;;;23.95;100.00;99695.31;5019400;28;20994;-59
2023/08/26 08:21:47;;;;;;;11.13;2.20;;;;;;;23.94;100.00;99698.09;5027902;28;20076;-59
2023/08/26 08:24:18;;;;;;;8.90;1.70;;;;;;;23.90;100.00;99700.19;5022619;28;20083;-59
2023/08/26 08:26:49;;;;;;;7.60;1.80;;;;;;;23.89;100.00;99706.50;5029008;28;20051;-59
2023/08/26 08:29:19;;;;;;;10.53;2.10;;;;;;;23.86;100.00;99696.06;5020989;28;20151;-59
2023/08/26 08:31:51;;;;;;;11.70;2.40;;;;;;;23.80;100.00;99700.06;5031582;28;20460;-59
2023/08/26 08:34:23;;;;;;;9.23;2.37;;;;;;;23.76;100.00;99713.78;5002710;28;20124;-59
2023/08/26 08:36:53;;;;;;;10.23;2.43;;;;;;;23.73;100.00;99722.03;5012892;28;20500;-59
2023/08/26 08:39:24;;;;;;;12.83;3.70;;;;;;;23.69;100.00;99721.41;5004108;28;20394;-57
2023/08/26 08:41:56;;;;;;;10.27;2.67;;;;;;;23.66;100.00;99724.28;5024054;28;20132;-57
2023/08/26 08:44:27;;;;;;;8.87;2.70;;;;;;;23.64;100.00;99727.09;5037980;28;20051;-58
2023/08/26 08:46:58;;;;;;;10.93;2.40;;;;;;;23.57;100.00;99720.56;5054453;28;20048;-57
2023/08/26 08:49:31;;;;;;;12.00;2.70;;;;;;;23.60;100.00;99730.97;5054399;28;20064;-57
2023/08/26 08:52:02;;;;;;;10.23;2.43;;;;;;;23.58;100.00;99732.91;5034377;28;20048;-57
2023/08/26 08:54:34;;;;;;;15.17;2.27;;;;;;;23.55;100.00;99738.50;5034377;28;20049;-58
2023/08/26 08:57:06;;;;;;;7.10;2.00;;;;;;;23.53;100.00;99737.75;5024105;28;20114;-58
2023/08/26 08:59:38;;;;;;;10.90;2.50;;;;;;;23.51;100.00;99747.69;5033962;28;20123;-57
2023/08/26 09:02:11;;;;;;;10.73;2.90;;;;;;;23.43;100.00;99739.44;5021231;28;20049;-57
2023/08/26 09:05:02;;;;;;;8.20;2.17;;;;;;;23.40;100.00;99750.34;5019604;28;20090;-56
2023/08/26 09:08:06;;;;;;;6.53;2.20;;;;;;;23.37;100.00;99745.28;5011824;28;20080;-57
2023/08/26 09:10:43;;;;;;;8.25;3.20;;;;;;;23.33;100.00;99743.81;4958500;28;20402;-58
2023/08/26 09:13:14;;;;;;;11.90;2.97;;;;;;;22.90;100.00;99685.81;4972941;28;20079;-58
2023/08/26 09:15:46;;;;;;;6.67;2.17;;;;;;;23.28;100.00;99751.31;4964113;28;20039;-58
2023/08/26 09:18:19;;;;;;;8.97;2.10;;;;;;;23.04;100.00;99725.59;4966216;28;20065;-58
2023/08/26 09:20:52;;;;;;;11.60;2.77;;;;;;;23.23;100.00;99760.50;4963047;28;20055;-58
2023/08/26 09:23:23;;;;;;;10.97;2.73;;;;;;;23.21;100.00;99767.78;4937655;28;20042;-58
2023/08/26 09:26:12;;;;;;;9.33;2.27;;;;;;;23.15;100.00;99762.91;4949051;28;20035;-58
2023/08/26 09:28:52;;;;;;;12.50;2.42;;;;;;;23.12;100.00;99760.50;4940144;28;20070;-58
2023/08/26 09:31:25;;;;;;;9.60;2.37;;;;;;;23.14;100.00;99768.34;4907110;28;20043;-55
2023/08/26 09:34:03;;;;;;;6.60;2.33;;;;;;;23.08;100.00;99771.50;4927744;28;20095;-56
2023/08/26 09:36:45;;;;;;;9.57;3.10;;;;;;;23.08;100.00;99783.00;4942939;28;20071;-58
2023/08/26 09:39:28;;;;;;;;;;;;;;;;;;;;;
2023/08/26 09:42:22;;;;;;;10.53;2.57;;;;;;;23.01;100.00;99795.97;4880796;29;20040;-57
2023/08/26 09:44:57;;;;;;;12.50;2.73;;;;;;;23.00;100.00;99798.72;4886827;29;20047;-59
2023/08/26 09:47:30;;;;;;;12.23;2.80;;;;;;;22.79;100.00;99772.72;4942826;28;20048;-58
2023/08/26 09:50:02;;;;;;;9.83;2.53;;;;;;;22.98;100.00;99808.66;4961022;28;20074;-58
2023/08/26 09:52:44;;;;;;;8.87;2.80;;;;;;;22.95;100.00;99814.19;4975660;28;20107;-59
2023/08/26 09:55:16;;;;;;;7.60;2.70;;;;;;;22.87;100.00;99816.56;4980809;28;20054;-59
2023/08/26 09:57:48;;;;;;;9.73;2.77;;;;;;;22.90;100.00;99827.84;5001468;28;20050;-59
2023/08/26 10:00:22;;;;;;;9.43;2.70;;;;;;;22.88;100.00;99840.41;5011360;28;20045;-60
2023/08/26 10:02:59;;;;;;;7.60;3.20;;;;;;;22.86;100.00;99841.50;5011810;28;20499;-58
2023/08/26 10:05:35;;;;;;;10.23;3.03;;;;;;;22.82;100.00;99851.53;5010931;28;20469;-59
2023/08/26 10:08:12;;;;;;;10.83;2.67;;;;;;;22.74;100.00;99844.13;5010616;28;20457;-58
2023/08/26 10:10:51;;;;;;;9.30;2.67;;;;;;;22.78;100.00;99850.06;4978679;28;20380;-58
2023/08/26 10:13:24;;;;;;;;;;;;;;;22.75;100.00;99856.47;4969441;28;20037;-57
2023/08/26 10:15:59;;;;;;;11.60;3.23;;;;;;;22.72;100.00;99856.69;4981634;28;19925;-57
2023/08/26 10:18:41;;;;;;;8.70;2.53;;;;;;;22.70;100.00;99861.28;4981702;28;20049;-57
2023/08/26 10:21:15;;;;;;;10.43;2.53;;;;;;;22.67;100.00;99864.16;4972130;28;20067;-58
2023/08/26 10:23:50;;;;;;;7.57;2.80;;;;;;;22.63;100.00;99867.16;4982272;28;21042;-57
2023/08/26 10:26:22;;;;;;;8.27;2.77;;;;;;;22.58;100.00;99876.31;4972271;28;20042;-57
2023/08/26 10:28:54;;;;;;;9.63;2.13;;;;;;;22.54;100.00;99869.53;4982621;28;20045;-57
2023/08/26 10:31:35;;;;;;;10.53;2.90;;;;;;;22.50;100.00;99872.53;4952333;28;20078;-58
2023/08/26 10:34:16;;;;;;;12.17;3.00;;;;;;;22.45;100.00;99874.69;4951894;28;20391;-57
2023/08/26 10:36:50;;;;;;;8.13;2.20;;;;;;;22.42;100.00;99877.56;4962127;28;20042;-58
2023/08/26 10:39:26;;;;;;;6.77;2.83;;;;;;;22.40;100.00;99877.66;4963202;28;20053;-57
2023/08/26 10:42:16;;;;;;;6.93;2.37;;;;;;;22.34;100.00;99878.97;4973233;28;20054;-56
2023/08/26 10:44:50;;;;;;;8.87;2.20;;;;;;;22.07;100.00;99854.28;4982853;28;20069;-57
2023/08/26 10:47:36;;;;;;;6.30;2.50;;;;;;;22.19;100.00;99885.34;5013888;28;20053;-58
2023/08/26 10:50:19;;;;;;;7.10;2.20;;;;;;;22.17;100.00;99876.63;5013260;28;20060;-57
2023/08/26 10:52:54;;;;;;;5.13;2.73;;;;;;;22.16;100.00;99888.19;5024612;28;20052;-58
2023/08/26 10:55:30;;;;;;;9.50;2.40;;;;;;;22.10;100.00;99878.00;5013203;28;20053;-58
2023/08/26 10:58:19;;;;;;;6.57;2.50;;;;;;;22.13;100.00;99897.25;5013382;28;21835;-57
2023/08/26 11:00:52;;;;;;;8.33;2.37;;;;;;;22.13;100.00;99907.06;5008710;28;20045;-57
2023/08/26 11:03:25;;;;;;;9.77;2.63;;;;;;;22.15;100.00;99921.09;4993711;28;20148;-58
2023/08/26 11:06:04;;;;;;;8.27;2.30;;;;;;;21.80;100.00;99863.22;4993782;28;20376;-58
2023/08/26 11:08:39;;;;;;;8.17;2.50;;;;;;;22.13;100.00;99926.53;5017795;28;20045;-58
2023/08/26 11:11:15;;;;;;;8.87;2.37;;;;;;;22.12;100.00;99934.63;5014159;28;20059;-58
2023/08/26 11:13:48;;;;;;;6.70;2.20;;;;;;;22.12;100.00;99931.97;5024346;28;20468;-57
2023/08/26 11:16:21;;;;;;;7.37;2.60;;;;;;;22.13;100.00;99938.97;5013533;28;20048;-57
2023/08/26 11:18:56;;;;;;;7.23;2.13;;;;;;;22.09;100.00;99932.16;5022889;28;20043;-57
2023/08/26 11:21:28;;;;;;;5.70;2.10;;;;;;;22.09;100.00;99948.13;4993077;28;20053;-57
2023/08/26 11:24:04;;;;;;;4.37;2.33;;;;;;;22.08;100.00;99946.44;5010345;28;20500;-57
2023/08/26 11:26:37;;;;;;;4.70;2.00;;;;;;;22.05;100.00;99946.66;5002813;28;20096;-57
2023/08/26 11:29:11;;;;;;;5.23;2.07;;;;;;;22.03;100.00;99948.56;4992174;28;20049;-57
2023/08/26 11:31:43;;;;;;;9.00;1.80;;;;;;;22.00;100.00;99954.09;5003775;28;20054;-55
2023/08/26 11:34:15;;;;;;;4.37;2.20;;;;;;;21.97;100.00;99950.69;4993104;28;20136;-58
2023/08/26 11:36:46;;;;;;;5.30;2.00;;;;;;;21.77;100.00;99927.28;5003035;28;20392;-56
2023/08/26 11:39:19;;;;;;;5.63;2.47;;;;;;;21.87;100.00;99941.66;4992597;28;20053;-57
2023/08/26 11:41:53;;;;;;;13.17;7.83;;;;;;;21.97;100.00;99956.00;5003470;28;20057;-58
2023/08/26 11:44:25;;;;;;;7.43;2.33;;;;;;;21.99;100.00;99961.25;4992438;28;20073;-57
2023/08/26 11:46:58;;;;;;;6.00;1.67;;;;;;;21.96;100.00;99964.94;4993223;28;20192;-57
2023/08/26 11:49:30;;;;;;;5.50;1.90;;;;;;;21.96;100.00;99967.59;5002749;28;20355;-58
2023/08/26 11:52:02;;;;;;;3.17;1.60;;;;;;;21.94;100.00;99963.34;4993060;28;20054;-57
2023/08/26 11:58:06;;;;;;;3.60;1.50;;;;;;;21.84;100.00;99965.78;4930874;28;20130;-55
2023/08/26 12:00:41;;;;;;;3.50;1.40;;;;;;;21.44;100.00;99906.47;4940764;28;20042;-57